LFMH/EBU METAR and TAF weather

Enter ICAO airport designator
Station Type Date Time Source
LFMH METAR 2021/05/13 06:00 UTC NOAA

LFMH 130600Z AUTO 15006KT 9999 OVC044 08/05 Q1013 NOSIG


Station Type Date Time Source
LFMH Decoded METAR 2021/05/13 06:00 UTC NOAA

St-Etienne Boutheon, France (LFMH) 45-32N 004-18E 402M
May 13, 2021 - 02:00 AM EDT / 2021.05.13 0600 UTC
Wind: from the SSE (150 degrees) at 7 MPH (6 KT):0
Visibility: greater than 7 mile(s):0
Sky conditions: overcast
Temperature: 46 F (8 C)
Dew Point: 41 F (5 C)
Relative Humidity: 81%
Pressure (altimeter): 29.91 in. Hg (1013 hPa)
ob: LFMH 130600Z AUTO 15006KT 9999 OVC044 08/05 Q1013 NOSIG
cycle: 6

Station Type Date Time Source
LFMH TAF 2021/05/13 06:44 UTC NOAA

TAF LFMH 130500Z 1306/1406 VRB03KT 9999 BKN045
TEMPO 1309/1311 FEW035TCU
TEMPO 1311/1318 4000 SHRA BKN040TCU PROB30
TEMPO 1312/1316 VRB15G30KT 2000 TSRA SCT035CB PROB40
TEMPO 1402/1406 4000 RA BKN014

Example: see airport list